createdAt,value
2022-09-01T00:00:01.750Z,97826.98
2022-09-01T00:01:33.901Z,97827.34
2022-09-01T00:02:44.645Z,97823.08
2022-09-01T00:03:54.383Z,97827.00
2022-09-01T00:05:02.026Z,97828.96
2022-09-01T00:06:12.802Z,97827.94
2022-09-01T00:07:21.163Z,97827.12
2022-09-01T00:08:28.650Z,97827.72
2022-09-01T00:09:36.113Z,97831.26
2022-09-01T00:10:43.352Z,97828.36
2022-09-01T00:11:53.766Z,97826.66
2022-09-01T00:13:01.278Z,97834.02
2022-09-01T00:14:24.067Z,97833.88
2022-09-01T00:15:38.228Z,97837.02
2022-09-01T00:16:46.206Z,97832.46
2022-09-01T00:17:57.647Z,97836.64
2022-09-01T00:19:05.938Z,97838.03
2022-09-01T00:20:18.240Z,97831.73
2022-09-01T00:21:32.091Z,97839.60
2022-09-01T00:22:40.108Z,97834.84
2022-09-01T00:23:48.083Z,97834.15
2022-09-01T00:24:55.351Z,97830.28
2022-09-01T00:26:03.497Z,97829.27
2022-09-01T00:27:11.741Z,97828.05
2022-09-01T00:28:21.915Z,97830.70
2022-09-01T00:29:38.718Z,97830.36
2022-09-01T00:30:51.626Z,97830.16
2022-09-01T00:32:02.872Z,97829.27
2022-09-01T00:33:11.439Z,97824.21
2022-09-01T00:34:20.620Z,97828.89
2022-09-01T00:35:29.408Z,97826.98
2022-09-01T00:36:37.902Z,97829.35
2022-09-01T00:37:45.836Z,97833.63
2022-09-01T00:38:53.398Z,97833.96
2022-09-01T00:40:01.227Z,97835.00
2022-09-01T00:41:09.378Z,97836.20
2022-09-01T00:42:16.800Z,97834.27
2022-09-01T00:43:26.130Z,97835.14
2022-09-01T00:44:33.822Z,97834.09
2022-09-01T00:45:41.383Z,97831.89
2022-09-01T00:46:55.072Z,97834.45
2022-09-01T00:48:07.139Z,97833.67
2022-09-01T00:49:19.327Z,97832.81
2022-09-01T00:50:26.970Z,97832.86
2022-09-01T00:51:35.328Z,97834.63
2022-09-01T00:52:52.643Z,97839.38
2022-09-01T00:54:00.328Z,97839.92
2022-09-01T00:55:18.859Z,97839.67
2022-09-01T00:56:28.766Z,97837.84
2022-09-01T00:57:37.568Z,97840.18
2022-09-01T00:58:45.220Z,97842.27
2022-09-01T01:00:01.758Z,97839.73
2022-09-01T01:01:12.563Z,97841.15
2022-09-01T01:02:20.368Z,97838.59
2022-09-01T01:03:32.045Z,97838.99
2022-09-01T01:04:40.035Z,97841.42
2022-09-01T01:05:55.521Z,97839.09
2022-09-01T01:07:08.116Z,97836.07
2022-09-01T01:08:16.419Z,97837.52
2022-09-01T01:09:24.384Z,97837.16
2022-09-01T01:10:34.816Z,97840.48
2022-09-01T01:11:43.068Z,97839.42
2022-09-01T01:12:53.140Z,97840.98
2022-09-01T01:14:12.195Z,97841.20
2022-09-01T01:15:19.630Z,97839.85
2022-09-01T01:16:28.691Z,97838.17
2022-09-01T01:17:37.451Z,97844.13
2022-09-01T01:18:45.559Z,97843.86
2022-09-01T01:20:16.899Z,97840.69
2022-09-01T01:22:03.897Z,97846.19
2022-09-01T01:23:18.365Z,97845.46
2022-09-01T01:24:28.995Z,97845.98
2022-09-01T01:25:46.364Z,97849.02
2022-09-01T01:26:54.573Z,97848.19
2022-09-01T01:28:22.107Z,97855.26
2022-09-01T01:29:38.442Z,97855.70
2022-09-01T01:30:52.770Z,97860.56
2022-09-01T01:32:00.163Z,97856.01
2022-09-01T01:33:08.238Z,97854.80
2022-09-01T01:34:16.952Z,97858.96
2022-09-01T01:35:27.339Z,97859.27
2022-09-01T01:36:37.632Z,97858.61
2022-09-01T01:37:50.143Z,97853.87
2022-09-01T01:39:04.000Z,97858.61
2022-09-01T01:40:17.026Z,97860.05
2022-09-01T01:41:25.585Z,97863.20
2022-09-01T01:42:35.200Z,97862.08
2022-09-01T01:43:42.786Z,97861.89
2022-09-01T01:44:51.130Z,97862.09
2022-09-01T01:46:03.809Z,97862.73
2022-09-01T01:47:19.209Z,97863.81
2022-09-01T01:48:27.243Z,97868.35
2022-09-01T01:49:34.705Z,97866.25
2022-09-01T01:50:41.789Z,97866.56
2022-09-01T01:51:50.394Z,97868.22
2022-09-01T01:53:01.380Z,97870.37
2022-09-01T01:54:10.378Z,97871.84
2022-09-01T01:55:21.351Z,97874.20
2022-09-01T01:56:29.999Z,97874.02
2022-09-01T01:57:39.313Z,97876.09
2022-09-01T01:58:47.870Z,97875.38
2022-09-01T01:59:57.129Z,97880.15
2022-09-01T02:01:06.017Z,97879.59
2022-09-01T02:02:15.090Z,97884.41
2022-09-01T02:03:28.088Z,97882.59
2022-09-01T02:04:37.172Z,97881.46
2022-09-01T02:05:48.688Z,97877.59
2022-09-01T02:06:57.259Z,97881.02
2022-09-01T02:08:10.030Z,97880.31
2022-09-01T02:09:22.474Z,97879.14
2022-09-01T02:10:33.624Z,97879.13
2022-09-01T02:11:41.878Z,97875.73
2022-09-01T02:12:51.143Z,97877.12
2022-09-01T02:13:58.866Z,97875.57
2022-09-01T02:15:08.937Z,97877.11
2022-09-01T02:16:18.554Z,97875.83
2022-09-01T02:17:26.956Z,97876.93
2022-09-01T02:18:37.377Z,97878.32
2022-09-01T02:19:44.635Z,97877.73
2022-09-01T02:20:52.199Z,97878.65
2022-09-01T02:22:01.411Z,97881.49
2022-09-01T02:23:13.039Z,97881.94
2022-09-01T02:24:20.585Z,97882.65
2022-09-01T02:25:29.664Z,97887.63
2022-09-01T02:26:40.084Z,97886.29
2022-09-01T02:27:51.012Z,97887.11
2022-09-01T02:28:58.687Z,97885.73
2022-09-01T02:30:12.087Z,97889.14
2022-09-01T02:31:21.328Z,97887.67
2022-09-01T02:32:28.937Z,97885.73
2022-09-01T02:33:36.485Z,97887.06
2022-09-01T02:34:45.631Z,97886.81
2022-09-01T02:35:54.518Z,97886.02
2022-09-01T02:37:01.958Z,97885.78
2022-09-01T02:38:09.878Z,97891.16
2022-09-01T02:39:25.502Z,97891.87
2022-09-01T02:40:34.468Z,97894.54
2022-09-01T02:41:42.557Z,97893.40
2022-09-01T02:42:54.765Z,97897.45
2022-09-01T02:44:03.643Z,97898.67
2022-09-01T02:45:13.452Z,97900.48
2022-09-01T02:46:24.939Z,97899.59
2022-09-01T02:47:32.861Z,97904.30
2022-09-01T02:48:42.478Z,97902.66
2022-09-01T02:49:49.706Z,97904.21
2022-09-01T02:50:58.479Z,97903.64
2022-09-01T02:52:05.979Z,97904.02
2022-09-01T02:53:16.961Z,97905.80
2022-09-01T02:54:25.957Z,97908.36
2022-09-01T02:55:33.712Z,97901.08
2022-09-01T02:56:41.126Z,97903.37
2022-09-01T02:57:49.635Z,97905.18
2022-09-01T02:58:58.886Z,97906.25
2022-09-01T03:00:23.051Z,97910.09
2022-09-01T03:01:31.816Z,97910.75
2022-09-01T03:02:41.021Z,97918.13
2022-09-01T03:03:48.964Z,97918.81
2022-09-01T03:04:56.957Z,97918.35
2022-09-01T03:06:04.513Z,97922.39
2022-09-01T03:07:12.208Z,97924.66
2022-09-01T03:08:20.173Z,97925.10
2022-09-01T03:09:27.773Z,97922.39
2022-09-01T03:10:37.484Z,97919.81
2022-09-01T03:11:46.683Z,97918.92
2022-09-01T03:12:53.973Z,97918.01
2022-09-01T03:14:01.418Z,97920.55
2022-09-01T03:15:09.192Z,97918.73
2022-09-01T03:16:21.120Z,97917.21
2022-09-01T03:17:29.594Z,97917.42
2022-09-01T03:18:39.708Z,97917.67
2022-09-01T03:19:48.228Z,97918.19
2022-09-01T03:20:55.668Z,97916.72
2022-09-01T03:22:02.748Z,97916.39
2022-09-01T03:23:11.741Z,97918.42
2022-09-01T03:24:21.491Z,97915.91
2022-09-01T03:25:31.115Z,97916.89
2022-09-01T03:26:38.985Z,97915.47
2022-09-01T03:27:47.436Z,97916.81
2022-09-01T03:28:55.421Z,97912.73
2022-09-01T03:30:03.269Z,97914.63
2022-09-01T03:31:10.601Z,97915.87
2022-09-01T03:32:19.007Z,97921.04
2022-09-01T03:33:29.151Z,97924.23
2022-09-01T03:34:38.091Z,97927.46
2022-09-01T03:35:46.369Z,97927.23
2022-09-01T03:36:53.493Z,97926.64
2022-09-01T03:38:06.992Z,97929.39
2022-09-01T03:39:16.738Z,97927.85
2022-09-01T03:40:25.429Z,97926.45
2022-09-01T03:41:33.022Z,97929.45
2022-09-01T03:42:40.555Z,97931.35
2022-09-01T03:43:48.941Z,97931.88
2022-09-01T03:44:57.907Z,97928.14
2022-09-01T03:46:05.304Z,97927.66
2022-09-01T03:47:12.643Z,97930.93
2022-09-01T03:48:20.667Z,97930.17
2022-09-01T03:49:29.154Z,97931.21
2022-09-01T03:50:42.243Z,97933.60
2022-09-01T03:51:50.013Z,97932.30
2022-09-01T03:52:59.736Z,97932.02
2022-09-01T03:54:06.849Z,97932.05
2022-09-01T03:55:14.992Z,97930.14
2022-09-01T03:56:23.010Z,97933.73
2022-09-01T03:57:32.453Z,97936.69
2022-09-01T03:58:40.473Z,97935.11
2022-09-01T03:59:48.446Z,97941.94
2022-09-01T04:00:57.312Z,97944.59
2022-09-01T04:02:04.779Z,97944.34
2022-09-01T04:03:14.050Z,97945.48
2022-09-01T04:04:21.387Z,97947.98
2022-09-01T04:05:32.499Z,97946.48
2022-09-01T04:06:40.443Z,97944.04
2022-09-01T04:07:49.990Z,97945.13
2022-09-01T04:09:03.972Z,97948.44
2022-09-01T04:10:12.875Z,97950.27
2022-09-01T04:11:21.819Z,97949.86
2022-09-01T04:12:29.562Z,97953.14
2022-09-01T04:13:38.226Z,97956.00
2022-09-01T04:14:49.662Z,97959.17
2022-09-01T04:15:57.771Z,97955.88
2022-09-01T04:17:28.632Z,97956.19
2022-09-01T04:18:44.601Z,97955.98
2022-09-01T04:19:52.405Z,97954.84
2022-09-01T04:21:00.780Z,97959.95
2022-09-01T04:22:09.884Z,97960.92
2022-09-01T04:23:35.406Z,97959.02
2022-09-01T04:24:51.352Z,97962.96
2022-09-01T04:26:15.546Z,97960.98
2022-09-01T04:27:28.607Z,97965.97
2022-09-01T04:28:39.092Z,97974.31
2022-09-01T04:29:48.906Z,97972.19
2022-09-01T04:30:57.769Z,97972.79
2022-09-01T04:32:13.447Z,97971.98
2022-09-01T04:33:29.032Z,97970.52
2022-09-01T04:34:39.716Z,97968.34
2022-09-01T04:35:48.092Z,97961.09
2022-09-01T04:36:56.879Z,97959.61
2022-09-01T04:38:04.294Z,97958.89
2022-09-01T04:39:13.116Z,97959.27
2022-09-01T04:40:25.090Z,97959.60
2022-09-01T04:41:35.826Z,97958.54
2022-09-01T04:42:44.197Z,97959.72
2022-09-01T04:43:53.390Z,97958.33
2022-09-01T04:45:10.744Z,97961.06
2022-09-01T04:46:22.671Z,97967.21
2022-09-01T04:47:35.957Z,97967.94
2022-09-01T04:48:46.557Z,97966.74
2022-09-01T04:49:59.465Z,97969.45
2022-09-01T04:51:12.141Z,97973.46
2022-09-01T04:52:34.676Z,97974.54
2022-09-01T04:53:50.387Z,97970.95
2022-09-01T04:54:58.336Z,97973.70
2022-09-01T04:56:08.099Z,97972.04
2022-09-01T04:57:20.385Z,97971.98
2022-09-01T04:58:28.384Z,97973.55
2022-09-01T04:59:35.740Z,97977.02
2022-09-01T05:00:43.298Z,97976.70
2022-09-01T05:01:51.699Z,97977.90
2022-09-01T05:03:06.249Z,97978.17
2022-09-01T05:04:47.969Z,97979.42
2022-09-01T05:05:56.572Z,97978.98
2022-09-01T05:07:06.799Z,97979.48
2022-09-01T05:08:23.580Z,97980.05
2022-09-01T05:09:36.976Z,97980.59
2022-09-01T05:11:03.240Z,97981.93
2022-09-01T05:12:30.799Z,97983.08
2022-09-01T05:13:40.323Z,97982.25
2022-09-01T05:14:48.792Z,97982.28
2022-09-01T05:16:07.565Z,97982.09
2022-09-01T05:17:18.991Z,97986.89
2022-09-01T05:18:29.461Z,97987.02
2022-09-01T05:19:38.625Z,97986.11
2022-09-01T05:20:48.327Z,97982.61
2022-09-01T05:21:59.359Z,97981.94
2022-09-01T05:23:06.520Z,97981.98
2022-09-01T05:24:16.589Z,97979.48
2022-09-01T05:25:24.932Z,97980.21
2022-09-01T05:26:35.339Z,97981.42
2022-09-01T05:27:43.705Z,97981.92
2022-09-01T05:28:52.125Z,97982.01
2022-09-01T05:30:01.536Z,97981.19
2022-09-01T05:31:11.271Z,97980.80
2022-09-01T05:32:18.706Z,97978.11
2022-09-01T05:33:26.174Z,97975.13
2022-09-01T05:34:37.910Z,97974.32
2022-09-01T05:35:54.347Z,97977.09
2022-09-01T05:37:02.172Z,97974.23
2022-09-01T05:38:15.261Z,97976.08
2022-09-01T05:39:23.265Z,97981.46
2022-09-01T05:40:30.588Z,97981.27
2022-09-01T05:41:38.552Z,97979.31
2022-09-01T05:42:46.276Z,97981.35
2022-09-01T05:43:59.951Z,97978.34
2022-09-01T05:45:09.659Z,97980.38
2022-09-01T05:46:18.267Z,97981.24
2022-09-01T05:47:27.578Z,97978.00
2022-09-01T05:48:40.935Z,97978.22
2022-09-01T05:49:49.252Z,97978.60
2022-09-01T05:50:59.380Z,97978.11
2022-09-01T05:52:06.940Z,97974.63
2022-09-01T05:53:18.737Z,97979.45
2022-09-01T05:54:31.786Z,97982.23
2022-09-01T05:55:42.197Z,97983.70
2022-09-01T05:56:50.313Z,97983.73
2022-09-01T05:58:04.464Z,97984.13
2022-09-01T05:59:27.955Z,97986.48
2022-09-01T06:00:40.103Z,97987.52
2022-09-01T06:01:50.365Z,97988.23
2022-09-01T06:02:59.892Z,97987.05
2022-09-01T06:04:07.896Z,97985.67
2022-09-01T06:05:15.536Z,97987.33
2022-09-01T06:06:36.733Z,97991.16
2022-09-01T06:07:52.292Z,97988.10
2022-09-01T06:09:01.705Z,97988.09
2022-09-01T06:10:09.510Z,97986.39
2022-09-01T06:11:18.887Z,97989.86
2022-09-01T06:12:26.628Z,97989.91
2022-09-01T06:13:34.020Z,97990.05
2022-09-01T06:14:47.243Z,97989.57
2022-09-01T06:15:56.398Z,97985.42
2022-09-01T06:17:05.478Z,97987.02
2022-09-01T06:18:14.959Z,97982.35
2022-09-01T06:19:31.565Z,97986.52
2022-09-01T06:20:47.080Z,97986.52
2022-09-01T06:21:55.094Z,97990.48
2022-09-01T06:23:03.700Z,97993.84
2022-09-01T06:24:11.024Z,97993.70
2022-09-01T06:25:19.845Z,97992.52
2022-09-01T06:26:34.392Z,97991.55
2022-09-01T06:27:43.809Z,97990.15
2022-09-01T06:28:56.322Z,97990.29
2022-09-01T06:30:04.252Z,97990.96
2022-09-01T06:31:14.444Z,97992.63
2022-09-01T06:32:22.193Z,97996.73
2022-09-01T06:33:29.803Z,97994.81
2022-09-01T06:34:37.677Z,97991.40
2022-09-01T06:35:48.784Z,97995.69
2022-09-01T06:36:56.690Z,97991.35
2022-09-01T06:38:04.256Z,97990.11
2022-09-01T06:39:23.274Z,97987.48
2022-09-01T06:40:33.773Z,97986.32
2022-09-01T06:41:42.203Z,97985.27
2022-09-01T06:42:52.448Z,97989.33
2022-09-01T06:44:02.085Z,97990.06
2022-09-01T06:45:11.586Z,97993.63
2022-09-01T06:46:21.435Z,97998.23
2022-09-01T06:47:29.922Z,97997.31
2022-09-01T06:48:47.847Z,97998.33
2022-09-01T06:50:00.326Z,98000.59
2022-09-01T06:51:20.100Z,97999.31
2022-09-01T06:53:32.145Z,97997.79
2022-09-01T06:53:58.187Z,98002.11
2022-09-01T06:55:15.745Z,98001.72
2022-09-01T06:56:23.714Z,97998.11
2022-09-01T06:59:00.074Z,97999.14
2022-09-01T07:00:19.419Z,97996.30
2022-09-01T07:01:27.567Z,97995.88
2022-09-01T07:02:35.334Z,97996.71
2022-09-01T07:04:12.500Z,97992.17
2022-09-01T07:07:53.206Z,97986.73
2022-09-01T07:08:23.360Z,97991.77
2022-09-01T07:10:05.743Z,97989.12
2022-09-01T07:13:07.820Z,97987.06
2022-09-01T07:14:17.875Z,97987.96
2022-09-01T07:17:22.873Z,97986.70
2022-09-01T07:18:22.835Z,97987.40
2022-09-01T07:21:36.592Z,97989.08
2022-09-01T07:24:11.476Z,97989.14
2022-09-01T07:25:34.909Z,97989.23
2022-09-01T07:27:08.015Z,97988.40
2022-09-01T07:28:17.102Z,97991.23
2022-09-01T07:29:27.154Z,97988.90
2022-09-01T07:30:36.572Z,97988.79
2022-09-01T07:31:49.421Z,97984.89
2022-09-01T07:32:56.922Z,97981.70
2022-09-01T07:36:24.769Z,97978.87
2022-09-01T07:39:48.510Z,97973.41
2022-09-01T07:44:15.118Z,97972.38
2022-09-01T07:46:00.767Z,97973.74
2022-09-01T07:49:02.827Z,97973.92
2022-09-01T07:51:35.205Z,97977.41
2022-09-01T07:51:56.490Z,97973.73
2022-09-01T07:53:07.805Z,97969.09
2022-09-01T07:54:15.341Z,97967.80
2022-09-01T07:55:22.659Z,97967.38
2022-09-01T07:56:39.463Z,97961.23
2022-09-01T07:57:50.355Z,97954.94
2022-09-01T07:58:58.468Z,97955.27
2022-09-01T08:00:07.134Z,97954.95
2022-09-01T08:01:26.967Z,97954.08
2022-09-01T08:02:34.366Z,97947.73
2022-09-01T08:03:42.414Z,97945.36
2022-09-01T08:04:50.747Z,97945.49
2022-09-01T08:06:02.255Z,97947.27
2022-09-01T08:07:15.390Z,97949.82
2022-09-01T08:08:28.439Z,97948.70
2022-09-01T08:09:44.165Z,97953.88
2022-09-01T08:10:54.368Z,97954.73
2022-09-01T08:12:02.865Z,97955.76
2022-09-01T08:13:15.617Z,97956.11
2022-09-01T08:14:23.297Z,97952.47
2022-09-01T08:15:40.376Z,97952.92
2022-09-01T08:16:53.010Z,97956.98
2022-09-01T08:18:01.222Z,97958.81
2022-09-01T08:19:19.131Z,97956.70
2022-09-01T08:20:46.909Z,97956.60
2022-09-01T08:22:05.354Z,97953.50
2022-09-01T08:23:34.086Z,97955.52
2022-09-01T08:24:43.359Z,97955.29
2022-09-01T08:25:51.907Z,97954.31
2022-09-01T08:26:59.758Z,97954.17
2022-09-01T08:28:09.672Z,97958.48
2022-09-01T08:29:18.244Z,97957.28
2022-09-01T08:30:26.488Z,97956.88
2022-09-01T08:31:37.827Z,97951.63
2022-09-01T08:32:45.570Z,97953.02
2022-09-01T08:33:54.592Z,97950.06
2022-09-01T08:35:02.138Z,97949.34
2022-09-01T08:36:12.582Z,97947.30
2022-09-01T08:37:21.538Z,97945.95
2022-09-01T08:38:30.564Z,97944.48
2022-09-01T08:39:39.371Z,97941.37
2022-09-01T08:40:56.415Z,97936.68
2022-09-01T08:42:19.616Z,97936.28
2022-09-01T08:43:50.589Z,97939.88
2022-09-01T08:45:11.535Z,97939.13
2022-09-01T08:46:39.392Z,97936.92
2022-09-01T08:48:15.327Z,97939.37
2022-09-01T08:49:26.498Z,97937.19
2022-09-01T08:50:51.997Z,97938.36
2022-09-01T08:52:26.961Z,97934.85
2022-09-01T08:53:43.238Z,97930.23
2022-09-01T08:54:56.410Z,97925.98
2022-09-01T08:56:04.197Z,97922.52
2022-09-01T08:57:33.615Z,97925.48
2022-09-01T08:59:02.718Z,97922.45
2022-09-01T09:01:13.667Z,97918.02
2022-09-01T09:02:51.818Z,97919.63
2022-09-01T09:04:36.169Z,97918.36
2022-09-01T09:06:07.247Z,97924.45
2022-09-01T09:07:37.749Z,97927.46
2022-09-01T09:08:45.903Z,97935.84
2022-09-01T09:10:15.550Z,97935.42
2022-09-01T09:11:48.907Z,97934.90
2022-09-01T09:13:00.585Z,97931.41
2022-09-01T09:14:30.080Z,97931.29
2022-09-01T09:16:14.263Z,97926.61
2022-09-01T09:17:24.486Z,97926.79
2022-09-01T09:18:58.045Z,97925.41
2022-09-01T09:20:09.167Z,97921.61
2022-09-01T09:21:48.128Z,97921.56
2022-09-01T09:22:58.523Z,97923.81
2022-09-01T09:24:22.375Z,97921.83
2022-09-01T09:25:34.356Z,97922.87
2022-09-01T09:26:42.949Z,97923.20
2022-09-01T09:28:00.426Z,97926.90
2022-09-01T09:29:08.850Z,97924.14
2022-09-01T09:30:26.487Z,97924.92
2022-09-01T09:31:50.573Z,97926.79
2022-09-01T09:34:42.973Z,97920.45
2022-09-01T09:35:49.923Z,97924.11
2022-09-01T09:36:57.331Z,97924.68
2022-09-01T09:38:46.039Z,97924.98
2022-09-01T09:40:11.601Z,97924.54
2022-09-01T09:41:26.093Z,97923.84
2022-09-01T09:42:36.681Z,97916.82
2022-09-01T09:44:06.954Z,97917.20
2022-09-01T09:45:27.921Z,97913.68
2022-09-01T09:46:41.159Z,97914.13
2022-09-01T09:47:49.554Z,97911.77
2022-09-01T09:49:17.089Z,97911.40
2022-09-01T09:50:27.450Z,97911.61
2022-09-01T09:51:34.444Z,97908.31
2022-09-01T09:52:41.886Z,97903.27
2022-09-01T09:53:49.258Z,97900.64
2022-09-01T09:55:02.499Z,97896.67
2022-09-01T09:56:19.856Z,97890.82
2022-09-01T09:57:27.032Z,97886.65
2022-09-01T09:58:40.856Z,97886.55
2022-09-01T10:00:07.998Z,97885.41
2022-09-01T10:01:25.220Z,97888.38
2022-09-01T10:02:40.976Z,97885.79
2022-09-01T10:03:52.342Z,97882.30
2022-09-01T10:05:00.583Z,97879.81
2022-09-01T10:06:08.706Z,97878.83
2022-09-01T10:07:27.604Z,97878.44
2022-09-01T10:08:49.297Z,97877.27
2022-09-01T10:09:57.165Z,97875.96
2022-09-01T10:11:04.025Z,97878.55
2022-09-01T10:12:11.653Z,97878.83
2022-09-01T10:13:24.474Z,97878.98
2022-09-01T10:14:55.442Z,97880.74
2022-09-01T10:16:05.491Z,97885.21
2022-09-01T10:17:17.765Z,97891.94
2022-09-01T10:18:29.623Z,97896.73
2022-09-01T10:19:37.930Z,97896.19
2022-09-01T10:21:09.485Z,97898.69
2022-09-01T10:22:16.632Z,97897.98
2022-09-01T10:23:23.787Z,97898.44
2022-09-01T10:24:45.376Z,97897.66
2022-09-01T10:25:53.666Z,97896.42
2022-09-01T10:27:09.680Z,97896.27
2022-09-01T10:28:27.033Z,97894.78
2022-09-01T10:29:48.689Z,97898.25
2022-09-01T10:30:57.882Z,97900.60
2022-09-01T10:32:31.352Z,97902.85
2022-09-01T10:33:37.553Z,97906.02
2022-09-01T10:34:44.635Z,97907.13
2022-09-01T10:35:54.834Z,97906.03
2022-09-01T10:37:03.213Z,97908.60
2022-09-01T10:38:18.364Z,97907.56
2022-09-01T10:39:30.514Z,97905.31
2022-09-01T10:40:50.651Z,97905.63
2022-09-01T10:42:00.155Z,97903.89
2022-09-01T10:43:46.717Z,97905.41
2022-09-01T10:45:00.616Z,97899.10
2022-09-01T10:46:38.836Z,97894.98
2022-09-01T10:47:48.546Z,97891.14
2022-09-01T10:49:03.251Z,97891.73
2022-09-01T10:50:36.753Z,97890.27
2022-09-01T10:51:56.390Z,97886.52
2022-09-01T10:53:06.026Z,97888.18
2022-09-01T10:54:52.598Z,97886.10
2022-09-01T10:56:35.493Z,97884.35
2022-09-01T10:57:50.269Z,97882.42
2022-09-01T11:00:39.409Z,97885.05
2022-09-01T11:01:49.485Z,97886.10
2022-09-01T11:03:32.854Z,97887.47
2022-09-01T11:04:47.406Z,97887.30
2022-09-01T11:06:10.998Z,97883.90
2022-09-01T11:07:38.836Z,97883.18
2022-09-01T11:08:57.143Z,97881.10
2022-09-01T11:10:32.101Z,97878.90
2022-09-01T11:11:45.900Z,97877.81
2022-09-01T11:13:06.695Z,97880.21
2022-09-01T11:14:24.232Z,97874.52
2022-09-01T11:15:45.050Z,97875.63
2022-09-01T11:17:17.788Z,97878.81
2022-09-01T11:18:30.707Z,97881.00
2022-09-01T11:19:44.445Z,97878.85
2022-09-01T11:20:52.479Z,97880.61
2022-09-01T11:22:13.782Z,97881.71
2022-09-01T11:23:33.395Z,97879.27
2022-09-01T11:24:41.632Z,97885.28
2022-09-01T11:27:52.770Z,97879.62
2022-09-01T11:29:01.400Z,97876.48
2022-09-01T11:30:11.633Z,97873.40
2022-09-01T11:31:24.532Z,97872.91
2022-09-01T11:32:40.129Z,97874.33
2022-09-01T11:34:14.453Z,97871.76
2022-09-01T11:35:23.333Z,97874.19
2022-09-01T11:36:54.166Z,97870.97
2022-09-01T11:38:05.662Z,97871.48
2022-09-01T11:39:24.429Z,97874.17
2022-09-01T11:40:35.834Z,97873.34
2022-09-01T11:41:43.209Z,97877.30
2022-09-01T11:42:50.239Z,97883.30
2022-09-01T11:43:59.504Z,97886.15
2022-09-01T11:45:32.840Z,97888.24
2022-09-01T11:46:44.752Z,97888.57
2022-09-01T11:47:54.037Z,97889.83
2022-09-01T11:49:03.734Z,97889.13
2022-09-01T11:50:30.840Z,97889.94
2022-09-01T11:51:56.061Z,97887.64
2022-09-01T11:53:14.091Z,97886.65
2022-09-01T11:54:21.355Z,97884.90
2022-09-01T11:55:38.458Z,97883.97
2022-09-01T11:56:45.727Z,97881.61
2022-09-01T11:57:53.011Z,97881.81
2022-09-01T11:59:00.060Z,97883.56
2022-09-01T12:00:12.800Z,97882.14
2022-09-01T12:01:34.459Z,97882.14
2022-09-01T12:02:49.419Z,97885.33
2022-09-01T12:03:56.830Z,97887.19
2022-09-01T12:05:05.211Z,97886.03
2022-09-01T12:06:13.537Z,97890.42
2022-09-01T12:07:46.438Z,97891.13
2022-09-01T12:09:00.970Z,97888.16
2022-09-01T12:10:17.715Z,97887.39
2022-09-01T12:11:35.203Z,97887.32
2022-09-01T12:12:42.550Z,97889.73
2022-09-01T12:14:08.955Z,97890.37
2022-09-01T12:15:26.840Z,97890.35
2022-09-01T12:16:36.609Z,97898.62
2022-09-01T12:17:44.176Z,97898.89
2022-09-01T12:18:54.675Z,97901.77
2022-09-01T12:20:28.669Z,97901.73
2022-09-01T12:21:45.502Z,97902.51
2022-09-01T12:22:52.638Z,97896.36
2022-09-01T12:24:16.142Z,97893.16
2022-09-01T12:25:24.944Z,97890.06
2022-09-01T12:26:33.387Z,97891.66
2022-09-01T12:27:40.827Z,97892.69
2022-09-01T12:28:50.230Z,97898.23
2022-09-01T12:29:57.947Z,97897.54
2022-09-01T12:31:08.767Z,97899.65
2022-09-01T12:32:16.062Z,97902.74
2022-09-01T12:33:23.905Z,97903.66
2022-09-01T12:34:40.603Z,97906.88
2022-09-01T12:35:47.926Z,97905.33
2022-09-01T12:37:14.154Z,97906.96
2022-09-01T12:38:21.551Z,97904.34
2022-09-01T12:39:29.488Z,97908.95
2022-09-01T12:40:38.619Z,97906.38
2022-09-01T12:41:48.685Z,97907.50
2022-09-01T12:42:57.459Z,97903.02
2022-09-01T12:44:55.315Z,97907.22
2022-09-01T12:46:04.458Z,97910.61
2022-09-01T12:47:39.864Z,97914.73
2022-09-01T12:48:49.546Z,97915.51
2022-09-01T12:49:57.255Z,97915.73
2022-09-01T12:51:29.204Z,97919.01
2022-09-01T12:52:44.670Z,97920.28
2022-09-01T12:54:04.909Z,97920.83
2022-09-01T12:56:50.425Z,97917.96
2022-09-01T12:58:02.117Z,97918.80
2022-09-01T12:59:36.204Z,97919.41
2022-09-01T13:01:02.354Z,97916.98
2022-09-01T13:02:28.284Z,97918.55
2022-09-01T13:03:35.698Z,97919.79
2022-09-01T13:04:43.469Z,97916.22
2022-09-01T13:05:54.709Z,97918.48
2022-09-01T13:07:06.468Z,97913.17
2022-09-01T13:08:20.648Z,97914.44
2022-09-01T13:09:28.610Z,97919.55
2022-09-01T13:10:39.268Z,97920.00
2022-09-01T13:13:16.765Z,97925.36
2022-09-01T13:14:25.359Z,97928.27
2022-09-01T13:15:34.960Z,97932.48
2022-09-01T13:16:45.814Z,97933.52
2022-09-01T13:17:53.607Z,97930.95
2022-09-01T13:19:26.323Z,97931.99
2022-09-01T13:20:28.545Z,97932.77
2022-09-01T13:21:36.410Z,97937.36
2022-09-01T13:22:45.767Z,97940.11
2022-09-01T13:23:53.105Z,97937.13
2022-09-01T13:25:00.329Z,97943.33
2022-09-01T13:26:07.570Z,97944.36
2022-09-01T13:27:22.710Z,97948.48
2022-09-01T13:28:30.819Z,97949.36
2022-09-01T13:29:38.737Z,97952.98
2022-09-01T13:30:49.494Z,97951.99
2022-09-01T13:33:30.240Z,97958.62
2022-09-01T13:34:40.361Z,97951.98
2022-09-01T13:35:49.014Z,97951.77
2022-09-01T13:36:57.162Z,97958.36
2022-09-01T13:38:04.655Z,97955.98
2022-09-01T13:39:11.778Z,97957.18
2022-09-01T13:40:21.234Z,97959.10
2022-09-01T13:41:31.372Z,97959.98
2022-09-01T13:42:41.193Z,97961.54
2022-09-01T13:43:50.240Z,97962.31
2022-09-01T13:44:58.332Z,97961.21
2022-09-01T13:46:05.615Z,97955.52
2022-09-01T13:47:29.250Z,97955.42
2022-09-01T13:50:10.879Z,97954.33
2022-09-01T13:51:30.140Z,97957.25
2022-09-01T13:52:40.132Z,97951.92
2022-09-01T13:53:49.196Z,97947.73
2022-09-01T13:54:57.660Z,97949.38
2022-09-01T13:56:05.845Z,97948.47
2022-09-01T13:57:13.981Z,97947.66
2022-09-01T13:58:22.183Z,97947.52
2022-09-01T13:59:32.331Z,97950.53
2022-09-01T14:00:42.313Z,97948.58
2022-09-01T14:01:49.534Z,97949.85
2022-09-01T14:02:57.810Z,97948.03
2022-09-01T14:04:07.567Z,97947.23
2022-09-01T14:05:14.792Z,97947.22
2022-09-01T14:06:22.649Z,97951.38
2022-09-01T14:07:31.344Z,97953.14
2022-09-01T14:08:39.172Z,97952.39
2022-09-01T14:09:46.976Z,97952.83
2022-09-01T14:10:54.627Z,97955.74
2022-09-01T14:12:01.785Z,97954.69
2022-09-01T14:13:08.870Z,97957.23
2022-09-01T14:14:16.826Z,97961.36
2022-09-01T14:15:27.206Z,97960.34
2022-09-01T14:16:35.212Z,97961.53
2022-09-01T14:17:42.965Z,97962.98
2022-09-01T14:18:50.030Z,97966.02
2022-09-01T14:19:58.719Z,97970.30
2022-09-01T14:21:05.792Z,97970.94
2022-09-01T14:22:13.140Z,97979.19
2022-09-01T14:23:20.459Z,97977.52
2022-09-01T14:24:27.820Z,97980.46
2022-09-01T14:25:36.366Z,97979.31
2022-09-01T14:26:45.388Z,97977.96
2022-09-01T14:27:54.987Z,97978.80
2022-09-01T14:29:04.012Z,97978.73
2022-09-01T14:30:16.572Z,97977.51
2022-09-01T14:31:25.644Z,97977.31
2022-09-01T14:32:35.806Z,97979.24
2022-09-01T14:33:45.215Z,97981.61
2022-09-01T14:34:53.658Z,97976.84
2022-09-01T14:36:02.057Z,97975.17
2022-09-01T14:37:09.202Z,97974.73
2022-09-01T14:38:17.393Z,97977.31
2022-09-01T14:39:29.622Z,97979.23
2022-09-01T14:40:39.976Z,97976.00
2022-09-01T14:41:49.388Z,97976.23
2022-09-01T14:42:58.218Z,97976.96
2022-09-01T14:44:05.723Z,97979.42
2022-09-01T14:45:14.065Z,97979.27
2022-09-01T14:46:24.600Z,97975.67